sensor_id;sensor_type;location;lat;lon;timestamp;temperature;humidity
52656;SHT85;35474;51.032;6.998;2022-12-18T00:01:17;-4.96;85.15
52656;SHT85;35474;51.032;6.998;2022-12-18T00:03:46;-4.91;85.14
52656;SHT85;35474;51.032;6.998;2022-12-18T00:06:13;-4.78;85.14
52656;SHT85;35474;51.032;6.998;2022-12-18T00:08:40;-4.73;85.01
52656;SHT85;35474;51.032;6.998;2022-12-18T00:11:10;-4.61;84.42
52656;SHT85;35474;51.032;6.998;2022-12-18T00:13:39;-4.68;83.96
52656;SHT85;35474;51.032;6.998;2022-12-18T00:16:08;-4.63;84.04
52656;SHT85;35474;51.032;6.998;2022-12-18T00:18:36;-4.57;83.97
52656;SHT85;35474;51.032;6.998;2022-12-18T00:21:05;-4.71;84.09
52656;SHT85;35474;51.032;6.998;2022-12-18T00:23:36;-4.73;84.20
52656;SHT85;35474;51.032;6.998;2022-12-18T00:26:05;-4.75;84.30
52656;SHT85;35474;51.032;6.998;2022-12-18T00:28:33;-4.67;84.35
52656;SHT85;35474;51.032;6.998;2022-12-18T00:31:01;-4.54;84.25
52656;SHT85;35474;51.032;6.998;2022-12-18T00:33:27;-4.57;83.90
52656;SHT85;35474;51.032;6.998;2022-12-18T00:35:54;-4.50;83.66
52656;SHT85;35474;51.032;6.998;2022-12-18T00:38:21;-4.43;83.35
52656;SHT85;35474;51.032;6.998;2022-12-18T00:40:47;-4.49;83.27
52656;SHT85;35474;51.032;6.998;2022-12-18T00:43:14;-4.38;83.42
52656;SHT85;35474;51.032;6.998;2022-12-18T00:45:40;-4.38;83.07
52656;SHT85;35474;51.032;6.998;2022-12-18T00:48:07;-4.40;83.07
52656;SHT85;35474;51.032;6.998;2022-12-18T00:50:34;-4.50;83.30
52656;SHT85;35474;51.032;6.998;2022-12-18T00:53:00;-4.57;83.45
52656;SHT85;35474;51.032;6.998;2022-12-18T00:55:27;-4.47;83.62
52656;SHT85;35474;51.032;6.998;2022-12-18T01:00:34;-4.47;83.38
52656;SHT85;35474;51.032;6.998;2022-12-18T01:03:02;-4.44;83.30
52656;SHT85;35474;51.032;6.998;2022-12-18T01:05:29;-4.42;83.07
52656;SHT85;35474;51.032;6.998;2022-12-18T01:07:56;-4.52;82.85
52656;SHT85;35474;51.032;6.998;2022-12-18T01:10:23;-4.38;83.03
52656;SHT85;35474;51.032;6.998;2022-12-18T01:12:51;-4.42;82.88
52656;SHT85;35474;51.032;6.998;2022-12-18T01:15:18;-4.30;82.71
52656;SHT85;35474;51.032;6.998;2022-12-18T01:17:44;-4.23;82.61
52656;SHT85;35474;51.032;6.998;2022-12-18T01:20:11;-4.32;82.37
52656;SHT85;35474;51.032;6.998;2022-12-18T01:22:38;-4.34;82.53
52656;SHT85;35474;51.032;6.998;2022-12-18T01:25:05;-4.27;82.47
52656;SHT85;35474;51.032;6.998;2022-12-18T01:27:32;-4.25;82.56
52656;SHT85;35474;51.032;6.998;2022-12-18T01:30:06;-4.49;82.60
52656;SHT85;35474;51.032;6.998;2022-12-18T01:32:35;-4.56;83.32
52656;SHT85;35474;51.032;6.998;2022-12-18T01:35:02;-4.40;83.34
52656;SHT85;35474;51.032;6.998;2022-12-18T01:37:29;-4.30;82.88
52656;SHT85;35474;51.032;6.998;2022-12-18T01:39:55;-4.33;82.61
52656;SHT85;35474;51.032;6.998;2022-12-18T01:42:22;-4.26;82.63
52656;SHT85;35474;51.032;6.998;2022-12-18T01:44:59;-4.26;82.67
52656;SHT85;35474;51.032;6.998;2022-12-18T01:47:45;-4.34;82.52
52656;SHT85;35474;51.032;6.998;2022-12-18T01:50:13;-4.52;82.67
52656;SHT85;35474;51.032;6.998;2022-12-18T01:52:52;-4.53;82.96
52656;SHT85;35474;51.032;6.998;2022-12-18T01:55:22;-4.50;83.18
52656;SHT85;35474;51.032;6.998;2022-12-18T01:57:52;-4.43;83.34
52656;SHT85;35474;51.032;6.998;2022-12-18T02:00:21;-4.22;82.75
52656;SHT85;35474;51.032;6.998;2022-12-18T02:02:49;-4.26;82.30
52656;SHT85;35474;51.032;6.998;2022-12-18T02:05:22;-4.19;82.03
52656;SHT85;35474;51.032;6.998;2022-12-18T02:13:50;-4.30;82.53
52656;SHT85;35474;51.032;6.998;2022-12-18T02:19:12;-4.33;82.57
52656;SHT85;35474;51.032;6.998;2022-12-18T02:22:15;-4.40;82.73
52656;SHT85;35474;51.032;6.998;2022-12-18T02:25:10;-4.44;82.93
52656;SHT85;35474;51.032;6.998;2022-12-18T02:27:57;-4.44;82.89
52656;SHT85;35474;51.032;6.998;2022-12-18T02:30:29;-4.46;83.03
52656;SHT85;35474;51.032;6.998;2022-12-18T02:33:00;-4.54;83.05
52656;SHT85;35474;51.032;6.998;2022-12-18T02:35:31;-4.56;83.66
52656;SHT85;35474;51.032;6.998;2022-12-18T02:38:00;-4.68;83.81
52656;SHT85;35474;51.032;6.998;2022-12-18T02:40:29;-4.85;84.14
52656;SHT85;35474;51.032;6.998;2022-12-18T02:43:02;-4.94;84.40
52656;SHT85;35474;51.032;6.998;2022-12-18T02:45:36;-5.05;84.59
52656;SHT85;35474;51.032;6.998;2022-12-18T02:48:13;-5.11;84.96
52656;SHT85;35474;51.032;6.998;2022-12-18T02:50:42;-5.09;85.10
52656;SHT85;35474;51.032;6.998;2022-12-18T02:53:24;-5.15;85.25
52656;SHT85;35474;51.032;6.998;2022-12-18T02:58:30;-5.23;85.17
52656;SHT85;35474;51.032;6.998;2022-12-18T03:04:05;-5.26;85.24
52656;SHT85;35474;51.032;6.998;2022-12-18T03:06:48;-5.42;85.24
52656;SHT85;35474;51.032;6.998;2022-12-18T03:09:34;-5.47;85.55
52656;SHT85;35474;51.032;6.998;2022-12-18T03:12:29;-5.49;85.87
52656;SHT85;35474;51.032;6.998;2022-12-18T03:15:04;-5.47;85.88
52656;SHT85;35474;51.032;6.998;2022-12-18T03:17:46;-5.42;85.55
52656;SHT85;35474;51.032;6.998;2022-12-18T03:20:19;-5.44;85.70
52656;SHT85;35474;51.032;6.998;2022-12-18T03:22:49;-5.47;85.65
52656;SHT85;35474;51.032;6.998;2022-12-18T03:25:20;-5.49;85.70
52656;SHT85;35474;51.032;6.998;2022-12-18T03:27:49;-5.49;85.64
52656;SHT85;35474;51.032;6.998;2022-12-18T03:30:21;-5.53;85.59
52656;SHT85;35474;51.032;6.998;2022-12-18T03:32:49;-5.52;85.67
52656;SHT85;35474;51.032;6.998;2022-12-18T03:35:45;-5.49;85.75
52656;SHT85;35474;51.032;6.998;2022-12-18T03:38:12;-5.66;85.67
52656;SHT85;35474;51.032;6.998;2022-12-18T03:40:44;-5.73;85.91
52656;SHT85;35474;51.032;6.998;2022-12-18T03:46:30;-5.85;86.19
52656;SHT85;35474;51.032;6.998;2022-12-18T03:49:04;-5.74;86.60
52656;SHT85;35474;51.032;6.998;2022-12-18T03:51:40;-5.78;86.55
52656;SHT85;35474;51.032;6.998;2022-12-18T03:54:11;-5.70;86.25
52656;SHT85;35474;51.032;6.998;2022-12-18T03:56:40;-5.67;86.09
52656;SHT85;35474;51.032;6.998;2022-12-18T03:59:10;-5.69;85.99
52656;SHT85;35474;51.032;6.998;2022-12-18T04:01:40;-5.69;86.03
52656;SHT85;35474;51.032;6.998;2022-12-18T04:04:09;-5.70;86.10
52656;SHT85;35474;51.032;6.998;2022-12-18T04:06:39;-5.57;86.07
52656;SHT85;35474;51.032;6.998;2022-12-18T04:09:08;-5.57;85.75
52656;SHT85;35474;51.032;6.998;2022-12-18T04:11:35;-5.71;85.66
52656;SHT85;35474;51.032;6.998;2022-12-18T04:14:01;-5.74;85.87
52656;SHT85;35474;51.032;6.998;2022-12-18T04:16:32;-5.81;86.02
52656;SHT85;35474;51.032;6.998;2022-12-18T04:18:59;-5.77;86.05
52656;SHT85;35474;51.032;6.998;2022-12-18T04:21:25;-5.77;86.02
52656;SHT85;35474;51.032;6.998;2022-12-18T04:23:52;-5.80;86.08
52656;SHT85;35474;51.032;6.998;2022-12-18T04:26:18;-5.81;86.20
52656;SHT85;35474;51.032;6.998;2022-12-18T04:28:45;-5.93;86.20
52656;SHT85;35474;51.032;6.998;2022-12-18T04:31:11;-5.81;86.44
52656;SHT85;35474;51.032;6.998;2022-12-18T04:33:39;-5.78;86.45
52656;SHT85;35474;51.032;6.998;2022-12-18T04:36:06;-5.75;86.30
52656;SHT85;35474;51.032;6.998;2022-12-18T04:38:33;-5.67;85.99
52656;SHT85;35474;51.032;6.998;2022-12-18T04:41:00;-5.71;86.00
52656;SHT85;35474;51.032;6.998;2022-12-18T04:43:27;-5.70;85.90
52656;SHT85;35474;51.032;6.998;2022-12-18T04:45:53;-5.67;85.94
52656;SHT85;35474;51.032;6.998;2022-12-18T04:48:20;-5.62;85.78
52656;SHT85;35474;51.032;6.998;2022-12-18T04:50:46;-5.66;85.66
52656;SHT85;35474;51.032;6.998;2022-12-18T04:53:14;-5.73;85.77
52656;SHT85;35474;51.032;6.998;2022-12-18T04:55:40;-5.63;85.92
52656;SHT85;35474;51.032;6.998;2022-12-18T04:58:07;-5.63;85.61
52656;SHT85;35474;51.032;6.998;2022-12-18T05:00:34;-5.70;85.60
52656;SHT85;35474;51.032;6.998;2022-12-18T05:03:01;-5.67;85.92
52656;SHT85;35474;51.032;6.998;2022-12-18T05:05:28;-5.71;85.81
52656;SHT85;35474;51.032;6.998;2022-12-18T05:07:55;-5.67;85.79
52656;SHT85;35474;51.032;6.998;2022-12-18T05:10:22;-5.70;85.71
52656;SHT85;35474;51.032;6.998;2022-12-18T05:12:48;-5.75;85.94
52656;SHT85;35474;51.032;6.998;2022-12-18T05:15:29;-5.78;86.10
52656;SHT85;35474;51.032;6.998;2022-12-18T05:17:57;-5.81;86.21
52656;SHT85;35474;51.032;6.998;2022-12-18T05:20:25;-5.77;86.29
52656;SHT85;35474;51.032;6.998;2022-12-18T05:22:53;-5.84;86.22
52656;SHT85;35474;51.032;6.998;2022-12-18T05:25:20;-5.80;86.27
52656;SHT85;35474;51.032;6.998;2022-12-18T05:27:47;-5.78;86.33
52656;SHT85;35474;51.032;6.998;2022-12-18T05:30:15;-5.81;86.33
52656;SHT85;35474;51.032;6.998;2022-12-18T05:32:42;-5.90;86.29
52656;SHT85;35474;51.032;6.998;2022-12-18T05:35:09;-5.80;86.41
52656;SHT85;35474;51.032;6.998;2022-12-18T05:37:37;-5.88;86.39
52656;SHT85;35474;51.032;6.998;2022-12-18T05:40:08;-5.88;86.47
52656;SHT85;35474;51.032;6.998;2022-12-18T05:42:36;-5.91;86.48
52656;SHT85;35474;51.032;6.998;2022-12-18T05:45:02;-6.02;86.71
52656;SHT85;35474;51.032;6.998;2022-12-18T05:47:29;-5.93;86.88
52656;SHT85;35474;51.032;6.998;2022-12-18T05:49:56;-5.98;86.82
52656;SHT85;35474;51.032;6.998;2022-12-18T05:52:23;-6.05;87.02
52656;SHT85;35474;51.032;6.998;2022-12-18T05:54:49;-6.06;87.03
52656;SHT85;35474;51.032;6.998;2022-12-18T05:57:16;-5.90;86.93
52656;SHT85;35474;51.032;6.998;2022-12-18T05:59:43;-6.01;86.52
52656;SHT85;35474;51.032;6.998;2022-12-18T06:02:09;-5.95;86.86
52656;SHT85;35474;51.032;6.998;2022-12-18T06:04:36;-6.04;86.90
52656;SHT85;35474;51.032;6.998;2022-12-18T06:07:03;-6.04;86.90
52656;SHT85;35474;51.032;6.998;2022-12-18T06:09:29;-6.11;86.91
52656;SHT85;35474;51.032;6.998;2022-12-18T06:11:56;-5.99;87.17
52656;SHT85;35474;51.032;6.998;2022-12-18T06:14:22;-5.95;86.86
52656;SHT85;35474;51.032;6.998;2022-12-18T06:16:50;-5.88;86.65
52656;SHT85;35474;51.032;6.998;2022-12-18T06:19:17;-5.87;86.43
52656;SHT85;35474;51.032;6.998;2022-12-18T06:21:45;-5.91;86.27
52656;SHT85;35474;51.032;6.998;2022-12-18T06:24:11;-5.91;86.53
52656;SHT85;35474;51.032;6.998;2022-12-18T06:26:38;-5.77;86.39
52656;SHT85;35474;51.032;6.998;2022-12-18T06:29:05;-5.74;86.00
52656;SHT85;35474;51.032;6.998;2022-12-18T06:31:32;-5.84;85.83
52656;SHT85;35474;51.032;6.998;2022-12-18T06:33:59;-5.85;86.22
52656;SHT85;35474;51.032;6.998;2022-12-18T06:36:29;-5.83;86.23
52656;SHT85;35474;51.032;6.998;2022-12-18T06:38:55;-5.88;86.17
52656;SHT85;35474;51.032;6.998;2022-12-18T06:41:22;-5.95;86.34
52656;SHT85;35474;51.032;6.998;2022-12-18T06:43:49;-5.97;86.51
52656;SHT85;35474;51.032;6.998;2022-12-18T06:46:19;-5.95;86.64
52656;SHT85;35474;51.032;6.998;2022-12-18T06:48:47;-5.97;86.60
52656;SHT85;35474;51.032;6.998;2022-12-18T06:51:16;-5.97;86.76
52656;SHT85;35474;51.032;6.998;2022-12-18T06:53:46;-5.87;86.80
52656;SHT85;35474;51.032;6.998;2022-12-18T06:56:13;-5.91;86.63
52656;SHT85;35474;51.032;6.998;2022-12-18T06:58:40;-5.83;86.61
52656;SHT85;35474;51.032;6.998;2022-12-18T07:01:08;-5.87;86.32
52656;SHT85;35474;51.032;6.998;2022-12-18T07:03:37;-5.91;86.42
52656;SHT85;35474;51.032;6.998;2022-12-18T07:06:04;-6.05;86.49
52656;SHT85;35474;51.032;6.998;2022-12-18T07:08:32;-6.02;86.65
52656;SHT85;35474;51.032;6.998;2022-12-18T07:10:58;-6.11;86.58
52656;SHT85;35474;51.032;6.998;2022-12-18T07:13:25;-6.05;86.79
52656;SHT85;35474;51.032;6.998;2022-12-18T07:15:52;-6.04;86.73
52656;SHT85;35474;51.032;6.998;2022-12-18T07:18:19;-6.01;86.79
52656;SHT85;35474;51.032;6.998;2022-12-18T07:20:46;-6.02;86.58
52656;SHT85;35474;51.032;6.998;2022-12-18T07:23:13;-5.94;86.67
52656;SHT85;35474;51.032;6.998;2022-12-18T07:25:39;-5.88;86.54
52656;SHT85;35474;51.032;6.998;2022-12-18T07:28:06;-5.90;86.25
52656;SHT85;35474;51.032;6.998;2022-12-18T07:32:34;-5.94;86.40
52656;SHT85;35474;51.032;6.998;2022-12-18T07:35:01;-6.02;86.60
52656;SHT85;35474;51.032;6.998;2022-12-18T07:37:27;-5.95;86.71
52656;SHT85;35474;51.032;6.998;2022-12-18T07:39:54;-5.91;86.80
52656;SHT85;35474;51.032;6.998;2022-12-18T07:42:21;-5.90;86.73
52656;SHT85;35474;51.032;6.998;2022-12-18T07:44:57;-5.88;86.64
52656;SHT85;35474;51.032;6.998;2022-12-18T07:47:27;-5.85;86.60
52656;SHT85;35474;51.032;6.998;2022-12-18T07:49:55;-5.81;86.44
52656;SHT85;35474;51.032;6.998;2022-12-18T07:52:22;-5.75;86.37
52656;SHT85;35474;51.032;6.998;2022-12-18T07:54:51;-5.69;85.95
52656;SHT85;35474;51.032;6.998;2022-12-18T07:57:18;-5.59;85.70
52656;SHT85;35474;51.032;6.998;2022-12-18T08:00:05;-5.40;85.09
52656;SHT85;35474;51.032;6.998;2022-12-18T08:02:32;-5.17;84.61
52656;SHT85;35474;51.032;6.998;2022-12-18T08:04:59;-5.25;83.98
52656;SHT85;35474;51.032;6.998;2022-12-18T08:07:26;-5.05;83.73
52656;SHT85;35474;51.032;6.998;2022-12-18T08:09:52;-4.78;83.04
52656;SHT85;35474;51.032;6.998;2022-12-18T08:12:19;-4.70;82.57
52656;SHT85;35474;51.032;6.998;2022-12-18T08:14:45;-4.52;82.24
52656;SHT85;35474;51.032;6.998;2022-12-18T08:17:12;-4.44;81.89
52656;SHT85;35474;51.032;6.998;2022-12-18T08:19:38;-4.30;81.43
52656;SHT85;35474;51.032;6.998;2022-12-18T08:22:05;-4.10;81.01
52656;SHT85;35474;51.032;6.998;2022-12-18T08:24:32;-4.16;80.92
52656;SHT85;35474;51.032;6.998;2022-12-18T08:26:58;-4.19;80.82
52656;SHT85;35474;51.032;6.998;2022-12-18T08:29:45;-4.01;80.29
52656;SHT85;35474;51.032;6.998;2022-12-18T08:32:11;-4.02;80.00
52656;SHT85;35474;51.032;6.998;2022-12-18T08:34:38;-3.84;79.68
52656;SHT85;35474;51.032;6.998;2022-12-18T08:37:04;-3.89;79.55
52656;SHT85;35474;51.032;6.998;2022-12-18T08:39:31;-3.81;80.03
52656;SHT85;35474;51.032;6.998;2022-12-18T08:41:58;-3.68;79.40
52656;SHT85;35474;51.032;6.998;2022-12-18T08:44:50;-3.51;78.52
52656;SHT85;35474;51.032;6.998;2022-12-18T08:47:16;-3.58;78.92
52656;SHT85;35474;51.032;6.998;2022-12-18T08:49:43;-3.40;78.40
52656;SHT85;35474;51.032;6.998;2022-12-18T08:52:10;-3.47;78.80
52656;SHT85;35474;51.032;6.998;2022-12-18T08:54:37;-3.36;78.78
52656;SHT85;35474;51.032;6.998;2022-12-18T08:57:04;-3.17;78.26
52656;SHT85;35474;51.032;6.998;2022-12-18T08:59:30;-2.75;77.67
52656;SHT85;35474;51.032;6.998;2022-12-18T09:01:57;-2.84;76.59
52656;SHT85;35474;51.032;6.998;2022-12-18T09:04:23;-2.75;76.54
52656;SHT85;35474;51.032;6.998;2022-12-18T09:06:50;-2.13;75.56
52656;SHT85;35474;51.032;6.998;2022-12-18T09:09:16;-2.09;75.05
52656;SHT85;35474;51.032;6.998;2022-12-18T09:11:43;-2.10;74.47
52656;SHT85;35474;51.032;6.998;2022-12-18T09:14:10;-2.10;75.43
52656;SHT85;35474;51.032;6.998;2022-12-18T09:16:37;-2.20;75.35
52656;SHT85;35474;51.032;6.998;2022-12-18T09:19:04;-2.32;75.99
52656;SHT85;35474;51.032;6.998;2022-12-18T09:21:32;-2.36;76.16
52656;SHT85;35474;51.032;6.998;2022-12-18T09:24:02;-2.34;76.51
52656;SHT85;35474;51.032;6.998;2022-12-18T09:26:32;-2.27;76.54
52656;SHT85;35474;51.032;6.998;2022-12-18T09:28:58;-2.20;76.41
52656;SHT85;35474;51.032;6.998;2022-12-18T09:31:25;-1.81;75.37
52656;SHT85;35474;51.032;6.998;2022-12-18T09:33:51;-1.62;74.82
52656;SHT85;35474;51.032;6.998;2022-12-18T09:36:18;-1.56;74.90
52656;SHT85;35474;51.032;6.998;2022-12-18T09:38:46;-1.35;74.09
52656;SHT85;35474;51.032;6.998;2022-12-18T09:43:50;-1.26;73.76
52656;SHT85;35474;51.032;6.998;2022-12-18T09:46:25;-1.26;73.35
52656;SHT85;35474;51.032;6.998;2022-12-18T09:48:58;-1.41;73.62
52656;SHT85;35474;51.032;6.998;2022-12-18T09:51:30;-1.14;73.19
52656;SHT85;35474;51.032;6.998;2022-12-18T09:54:04;-1.04;73.16
52656;SHT85;35474;51.032;6.998;2022-12-18T09:56:38;-0.89;72.77
52656;SHT85;35474;51.032;6.998;2022-12-18T09:59:09;-0.89;72.26
52656;SHT85;35474;51.032;6.998;2022-12-18T10:01:46;-0.82;71.61
52656;SHT85;35474;51.032;6.998;2022-12-18T10:04:13;-0.90;71.85
52656;SHT85;35474;51.032;6.998;2022-12-18T10:06:49;-0.86;72.02
52656;SHT85;35474;51.032;6.998;2022-12-18T10:09:41;-0.82;71.39
52656;SHT85;35474;51.032;6.998;2022-12-18T10:12:22;-0.69;71.24
52656;SHT85;35474;51.032;6.998;2022-12-18T10:17:51;-0.58;70.28
52656;SHT85;35474;51.032;6.998;2022-12-18T10:20:37;-0.68;70.22
52656;SHT85;35474;51.032;6.998;2022-12-18T10:23:17;-0.59;70.31
52656;SHT85;35474;51.032;6.998;2022-12-18T10:25:55;-0.48;69.41
52656;SHT85;35474;51.032;6.998;2022-12-18T10:28:36;-0.27;68.98
52656;SHT85;35474;51.032;6.998;2022-12-18T10:31:16;-0.24;68.88
52656;SHT85;35474;51.032;6.998;2022-12-18T10:33:45;-0.18;68.54
52656;SHT85;35474;51.032;6.998;2022-12-18T10:36:12;0.04;68.92
52656;SHT85;35474;51.032;6.998;2022-12-18T10:38:39;0.21;66.78
52656;SHT85;35474;51.032;6.998;2022-12-18T10:44:10;0.02;67.67
52656;SHT85;35474;51.032;6.998;2022-12-18T10:46:37;0.02;67.68
52656;SHT85;35474;51.032;6.998;2022-12-18T10:49:05;-0.07;67.42
52656;SHT85;35474;51.032;6.998;2022-12-18T10:51:37;0.09;67.55
52656;SHT85;35474;51.032;6.998;2022-12-18T10:56:33;0.18;67.26
52656;SHT85;35474;51.032;6.998;2022-12-18T10:59:03;0.02;67.18
52656;SHT85;35474;51.032;6.998;2022-12-18T11:01:54;0.13;67.44
52656;SHT85;35474;51.032;6.998;2022-12-18T11:04:25;0.20;67.16
52656;SHT85;35474;51.032;6.998;2022-12-18T11:06:57;0.17;67.29
52656;SHT85;35474;51.032;6.998;2022-12-18T11:09:30;0.20;67.53
52656;SHT85;35474;51.032;6.998;2022-12-18T11:12:23;0.15;67.18
52656;SHT85;35474;51.032;6.998;2022-12-18T11:14:49;0.21;67.38
52656;SHT85;35474;51.032;6.998;2022-12-18T11:17:22;0.21;67.15
52656;SHT85;35474;51.032;6.998;2022-12-18T11:20:04;0.40;66.94
52656;SHT85;35474;51.032;6.998;2022-12-18T11:22:35;0.33;66.94
52656;SHT85;35474;51.032;6.998;2022-12-18T11:25:05;0.37;66.93
52656;SHT85;35474;51.032;6.998;2022-12-18T11:30:46;0.38;66.41
52656;SHT85;35474;51.032;6.998;2022-12-18T11:33:18;0.37;66.70
52656;SHT85;35474;51.032;6.998;2022-12-18T11:35:49;0.33;66.78
52656;SHT85;35474;51.032;6.998;2022-12-18T11:38:26;0.31;66.25
52656;SHT85;35474;51.032;6.998;2022-12-18T11:41:05;0.24;67.17
52656;SHT85;35474;51.032;6.998;2022-12-18T11:44:04;0.20;67.26
52656;SHT85;35474;51.032;6.998;2022-12-18T11:46:43;0.15;67.23
52656;SHT85;35474;51.032;6.998;2022-12-18T11:49:23;0.14;67.08
52656;SHT85;35474;51.032;6.998;2022-12-18T12:13:46;-0.22;68.75
52656;SHT85;35474;51.032;6.998;2022-12-18T12:16:36;-0.28;68.58
52656;SHT85;35474;51.032;6.998;2022-12-18T12:19:19;-0.28;68.85
52656;SHT85;35474;51.032;6.998;2022-12-18T12:22:05;-0.31;68.80
52656;SHT85;35474;51.032;6.998;2022-12-18T12:24:49;-0.34;69.00
52656;SHT85;35474;51.032;6.998;2022-12-18T12:33:27;-0.32;69.28
52656;SHT85;35474;51.032;6.998;2022-12-18T12:38:52;-0.25;69.41
52656;SHT85;35474;51.032;6.998;2022-12-18T12:41:23;-0.35;69.35
52656;SHT85;35474;51.032;6.998;2022-12-18T12:44:16;-0.31;69.70
52656;SHT85;35474;51.032;6.998;2022-12-18T12:46:54;-0.24;69.41
52656;SHT85;35474;51.032;6.998;2022-12-18T12:49:27;-0.39;69.21
52656;SHT85;35474;51.032;6.998;2022-12-18T12:52:11;-0.29;69.56
52656;SHT85;35474;51.032;6.998;2022-12-18T12:54:41;-0.31;69.59
52656;SHT85;35474;51.032;6.998;2022-12-18T12:57:30;-0.37;69.50
52656;SHT85;35474;51.032;6.998;2022-12-18T13:05:33;-0.41;69.40
52656;SHT85;35474;51.032;6.998;2022-12-18T13:08:10;-0.39;69.59
52656;SHT85;35474;51.032;6.998;2022-12-18T13:10:41;-0.42;69.27
52656;SHT85;35474;51.032;6.998;2022-12-18T13:13:15;-0.41;69.60
52656;SHT85;35474;51.032;6.998;2022-12-18T13:16:05;-0.39;69.38
52656;SHT85;35474;51.032;6.998;2022-12-18T13:18:36;-0.46;69.28
52656;SHT85;35474;51.032;6.998;2022-12-18T13:21:16;-0.46;69.52
52656;SHT85;35474;51.032;6.998;2022-12-18T13:23:47;-0.48;69.65
52656;SHT85;35474;51.032;6.998;2022-12-18T13:28:53;-0.51;69.73
52656;SHT85;35474;51.032;6.998;2022-12-18T13:36:54;-0.55;68.89
52656;SHT85;35474;51.032;6.998;2022-12-18T13:44:37;-0.55;69.49
52656;SHT85;35474;51.032;6.998;2022-12-18T13:47:51;-0.51;69.47
52656;SHT85;35474;51.032;6.998;2022-12-18T13:50:22;-0.51;69.56
52656;SHT85;35474;51.032;6.998;2022-12-18T13:52:59;-0.46;69.34
52656;SHT85;35474;51.032;6.998;2022-12-18T13:55:28;-0.42;69.27
52656;SHT85;35474;51.032;6.998;2022-12-18T13:58:11;-0.46;69.34
52656;SHT85;35474;51.032;6.998;2022-12-18T14:00:44;-0.56;69.53
52656;SHT85;35474;51.032;6.998;2022-12-18T14:03:30;-0.54;69.19
52656;SHT85;35474;51.032;6.998;2022-12-18T14:06:01;-0.56;69.33
52656;SHT85;35474;51.032;6.998;2022-12-18T14:08:33;-0.61;69.41
52656;SHT85;35474;51.032;6.998;2022-12-18T14:11:06;-0.58;69.42
52656;SHT85;35474;51.032;6.998;2022-12-18T14:13:44;-0.56;69.67
52656;SHT85;35474;51.032;6.998;2022-12-18T14:16:14;-0.59;69.73
52656;SHT85;35474;51.032;6.998;2022-12-18T14:21:24;-0.62;69.85
52656;SHT85;35474;51.032;6.998;2022-12-18T14:24:03;-0.59;69.87
52656;SHT85;35474;51.032;6.998;2022-12-18T14:26:31;-0.58;69.72
52656;SHT85;35474;51.032;6.998;2022-12-18T14:32:04;-0.58;69.89
52656;SHT85;35474;51.032;6.998;2022-12-18T14:34:37;-0.61;70.27
52656;SHT85;35474;51.032;6.998;2022-12-18T14:37:03;-0.62;70.20
52656;SHT85;35474;51.032;6.998;2022-12-18T14:39:30;-0.61;70.14
52656;SHT85;35474;51.032;6.998;2022-12-18T14:41:56;-0.61;70.06
52656;SHT85;35474;51.032;6.998;2022-12-18T14:44:23;-0.64;70.31
52656;SHT85;35474;51.032;6.998;2022-12-18T14:46:50;-0.66;70.23
52656;SHT85;35474;51.032;6.998;2022-12-18T14:51:50;-0.66;70.04
52656;SHT85;35474;51.032;6.998;2022-12-18T14:54:19;-0.65;70.09
52656;SHT85;35474;51.032;6.998;2022-12-18T14:56:47;-0.64;70.08
52656;SHT85;35474;51.032;6.998;2022-12-18T15:04:24;-0.66;69.84
52656;SHT85;35474;51.032;6.998;2022-12-18T15:07:12;-0.64;69.82
52656;SHT85;35474;51.032;6.998;2022-12-18T15:10:00;-0.69;69.76
52656;SHT85;35474;51.032;6.998;2022-12-18T15:12:49;-0.66;69.90
52656;SHT85;35474;51.032;6.998;2022-12-18T15:20:39;-0.72;70.05
52656;SHT85;35474;51.032;6.998;2022-12-18T15:25:56;-0.73;69.95
52656;SHT85;35474;51.032;6.998;2022-12-18T15:28:26;-0.72;69.84
52656;SHT85;35474;51.032;6.998;2022-12-18T15:31:00;-0.75;69.80
52656;SHT85;35474;51.032;6.998;2022-12-18T15:33:38;-0.73;69.85
52656;SHT85;35474;51.032;6.998;2022-12-18T15:36:13;-0.77;70.27
52656;SHT85;35474;51.032;6.998;2022-12-18T15:38:48;-0.75;70.13
52656;SHT85;35474;51.032;6.998;2022-12-18T15:41:17;-0.80;70.24
52656;SHT85;35474;51.032;6.998;2022-12-18T15:43:51;-0.83;70.42
52656;SHT85;35474;51.032;6.998;2022-12-18T15:46:19;-0.85;70.83
52656;SHT85;35474;51.032;6.998;2022-12-18T15:48:49;-0.89;70.77
52656;SHT85;35474;51.032;6.998;2022-12-18T15:51:31;-0.87;70.81
52656;SHT85;35474;51.032;6.998;2022-12-18T15:54:02;-0.89;71.12
52656;SHT85;35474;51.032;6.998;2022-12-18T15:56:34;-0.92;71.08
52656;SHT85;35474;51.032;6.998;2022-12-18T15:59:19;-0.92;71.21
52656;SHT85;35474;51.032;6.998;2022-12-18T16:01:48;-0.93;71.42
52656;SHT85;35474;51.032;6.998;2022-12-18T16:04:17;-0.92;71.92
52656;SHT85;35474;51.032;6.998;2022-12-18T16:06:46;-0.97;71.86
52656;SHT85;35474;51.032;6.998;2022-12-18T16:09:33;-0.99;72.17
52656;SHT85;35474;51.032;6.998;2022-12-18T16:12:01;-1.00;72.33
52656;SHT85;35474;51.032;6.998;2022-12-18T16:14:28;-1.03;72.50
52656;SHT85;35474;51.032;6.998;2022-12-18T16:16:57;-1.04;72.74
52656;SHT85;35474;51.032;6.998;2022-12-18T16:19:28;-1.01;72.90
52656;SHT85;35474;51.032;6.998;2022-12-18T16:21:56;-1.07;73.28
52656;SHT85;35474;51.032;6.998;2022-12-18T16:24:25;-1.07;73.31
52656;SHT85;35474;51.032;6.998;2022-12-18T16:26:53;-1.08;73.57
52656;SHT85;35474;51.032;6.998;2022-12-18T16:29:20;-1.11;73.70
52656;SHT85;35474;51.032;6.998;2022-12-18T16:31:50;-1.07;73.79
52656;SHT85;35474;51.032;6.998;2022-12-18T16:34:22;-1.13;73.89
52656;SHT85;35474;51.032;6.998;2022-12-18T16:36:54;-1.16;74.14
52656;SHT85;35474;51.032;6.998;2022-12-18T16:39:30;-1.17;74.27
52656;SHT85;35474;51.032;6.998;2022-12-18T16:41:57;-1.18;74.35
52656;SHT85;35474;51.032;6.998;2022-12-18T16:44:24;-1.17;74.50
52656;SHT85;35474;51.032;6.998;2022-12-18T16:46:51;-1.18;74.47
52656;SHT85;35474;51.032;6.998;2022-12-18T16:49:17;-1.24;74.75
52656;SHT85;35474;51.032;6.998;2022-12-18T16:51:45;-1.26;74.80
52656;SHT85;35474;51.032;6.998;2022-12-18T16:54:12;-1.31;74.78
52656;SHT85;35474;51.032;6.998;2022-12-18T16:56:44;-1.26;75.03
52656;SHT85;35474;51.032;6.998;2022-12-18T16:59:13;-1.28;74.93
52656;SHT85;35474;51.032;6.998;2022-12-18T17:01:39;-1.30;75.00
52656;SHT85;35474;51.032;6.998;2022-12-18T17:04:07;-1.31;75.03
52656;SHT85;35474;51.032;6.998;2022-12-18T17:06:35;-1.34;75.11
52656;SHT85;35474;51.032;6.998;2022-12-18T17:09:07;-1.34;75.13
52656;SHT85;35474;51.032;6.998;2022-12-18T17:11:38;-1.37;75.04
52656;SHT85;35474;51.032;6.998;2022-12-18T17:14:05;-1.43;75.24
52656;SHT85;35474;51.032;6.998;2022-12-18T17:16:33;-1.41;75.34
52656;SHT85;35474;51.032;6.998;2022-12-18T17:19:00;-1.43;75.48
52656;SHT85;35474;51.032;6.998;2022-12-18T17:21:26;-1.43;75.52
52656;SHT85;35474;51.032;6.998;2022-12-18T17:23:53;-1.38;75.67
52656;SHT85;35474;51.032;6.998;2022-12-18T17:26:20;-1.48;75.41
52656;SHT85;35474;51.032;6.998;2022-12-18T17:28:46;-1.43;75.50
52656;SHT85;35474;51.032;6.998;2022-12-18T17:31:15;-1.52;75.53
52656;SHT85;35474;51.032;6.998;2022-12-18T17:33:44;-1.50;75.64
52656;SHT85;35474;51.032;6.998;2022-12-18T17:36:11;-1.50;75.80
52656;SHT85;35474;51.032;6.998;2022-12-18T17:38:38;-1.51;75.68
52656;SHT85;35474;51.032;6.998;2022-12-18T17:41:09;-1.51;75.77
52656;SHT85;35474;51.032;6.998;2022-12-18T17:43:36;-1.54;75.90